Time;durP1;ratioP1;P1;durP2;ratioP2;P2;SDS_P1;SDS_P2;PMS_P1;PMS_P2;Temp;Humidity;BMP_temperature;BMP_pressure;BME280_temperature;BME280_humidity;BME280_pressure;Samples;Min_cycle;Max_cycle;Signal;HPM_P1;HPM_P2
2022/09/30 00:01:41;;;;;;;;;23.33;19.67;;;;;14.10;68.49;48036.53;4995884;28;45534;-74
2022/09/30 00:04:11;;;;;;;;;24.00;21.67;;;;;14.02;68.17;46929.66;5000525;28;45667;-74
2022/09/30 00:06:37;;;;;;;;;22.00;21.00;;;;;14.05;68.02;46617.50;4995183;28;45393;-75
2022/09/30 00:09:04;;;;;;;;;19.67;19.33;;;;;14.01;68.24;47053.09;4995686;28;45476;-75
2022/09/30 00:11:32;;;;;;;;;19.00;18.00;;;;;13.98;68.22;46740.84;4997670;28;45523;-74
2022/09/30 00:13:59;;;;;;;;;20.67;16.67;;;;;13.96;68.47;47493.16;5003622;28;45581;-75
2022/09/30 00:16:28;;;;;;;;;19.33;18.33;;;;;13.95;68.29;47307.22;4994859;28;45477;-75
2022/09/30 00:18:55;;;;;;;;;23.67;19.33;;;;;13.92;68.38;47384.06;4998631;28;45428;-74
2022/09/30 00:21:21;;;;;;;;;22.00;22.00;;;;;13.89;68.37;46990.28;4988732;27;45419;-74
2022/09/30 00:23:47;;;;;;;;;20.33;18.67;;;;;13.80;68.20;48246.47;4994753;28;46211;-74
2022/09/30 00:26:19;;;;;;;;;16.33;14.33;;;;;13.86;68.22;48119.34;4980532;28;45603;-75
2022/09/30 00:28:52;;;;;;;;;15.00;15.00;;;;;13.84;68.33;47279.97;5012157;27;45529;-74
2022/09/30 00:31:19;;;;;;;;;19.33;18.00;;;;;13.78;68.64;48118.28;4992280;28;45347;-74
2022/09/30 00:36:30;;;;;;;;;21.67;20.67;;;;;13.73;68.60;48759.16;5007860;28;47136;-75
2022/09/30 00:38:56;;;;;;;;;17.00;15.00;;;;;13.69;68.34;49292.91;4989356;28;45738;-75
2022/09/30 00:41:21;;;;;;;;;19.67;16.67;;;;;13.71;68.64;49043.44;5001882;28;45380;-74
2022/09/30 00:43:52;;;;;;;;;15.33;15.33;;;;;13.70;68.60;49500.03;4999735;28;46096;-74
2022/09/30 00:46:38;;;;;;;;;21.33;18.33;;;;;13.69;68.76;49847.81;4975813;28;45547;-74
2022/09/30 00:49:14;;;;;;;;;17.00;16.00;;;;;13.67;68.58;48791.47;4994060;28;45507;-72
2022/09/30 00:51:49;;;;;;;;;20.33;18.67;;;;;13.58;68.74;50129.03;4994993;28;45423;-72
2022/09/30 00:54:23;;;;;;;;;14.33;14.00;;;;;13.64;68.94;50608.19;5001220;28;45491;-72
2022/09/30 00:56:54;;;;;;;;;17.00;16.00;;;;;13.66;68.88;49937.75;5006894;28;45484;-72
2022/09/30 00:59:41;;;;;;;;;15.00;14.00;;;;;13.62;68.85;49997.69;5015793;28;45286;-71
2022/09/30 01:02:09;;;;;;;;;16.33;16.33;;;;;13.63;68.74;49303.16;4994885;28;45566;-72
2022/09/30 01:04:36;;;;;;;;;15.33;14.33;;;;;13.55;68.96;49566.28;5000443;28;46433;-72
2022/09/30 01:07:04;;;;;;;;;14.67;14.33;;;;;13.61;68.75;50274.50;4994590;28;45361;-72
2022/09/30 01:09:35;;;;;;;;;15.67;14.00;;;;;13.54;68.88;49689.25;4995942;28;45265;-72
2022/09/30 01:12:17;;;;;;;;;12.00;9.00;;;;;13.58;69.12;50758.44;4995939;28;45451;-72
2022/09/30 01:14:46;;;;;;;;;16.33;15.33;;;;;13.58;68.95;49156.47;4995569;28;47099;-72
2022/09/30 01:17:20;;;;;;;;;19.00;16.67;;;;;13.57;68.91;50017.53;4994480;28;45456;-71
2022/09/30 01:20:21;;;;;;;;;16.33;14.00;;;;;13.53;68.83;49784.00;4997158;28;45510;-72
2022/09/30 01:23:10;;;;;;;;;12.33;11.00;;;;;13.55;68.75;49280.34;4994060;28;45326;-72
2022/09/30 01:25:44;;;;;;;;;14.33;14.33;;;;;13.55;68.74;48402.75;5012000;28;45364;-72
2022/09/30 01:28:40;;;;;;;;;17.33;16.00;;;;;13.53;68.62;48261.38;4996544;28;45619;-72
2022/09/30 01:31:14;;;;;;;;;14.33;13.00;;;;;13.55;68.66;46582.09;4993784;28;45345;-72
2022/09/30 01:34:01;;;;;;;;;14.33;13.67;;;;;13.54;68.60;47199.50;4994529;28;45438;-71
2022/09/30 01:36:45;;;;;;;;;17.67;17.00;;;;;13.51;68.73;47215.94;5011640;28;46179;-72
2022/09/30 01:39:46;;;;;;;;;16.33;14.00;;;;;13.47;68.66;48069.09;5001311;28;45380;-72
2022/09/30 01:42:17;;;;;;;;;17.00;16.67;;;;;13.48;68.42;47099.81;4993557;28;45274;-72
2022/09/30 01:45:02;;;;;;;;;14.33;12.33;;;;;13.43;68.53;46926.59;4984288;28;45513;-72
2022/09/30 01:47:49;;;;;;;;;18.67;13.33;;;;;13.36;68.46;46173.41;4992681;28;46116;-71
2022/09/30 01:50:31;;;;;;;;;16.33;15.00;;;;;13.34;68.65;47342.19;4993663;28;45385;-72
2022/09/30 01:53:07;;;;;;;;;15.00;15.00;;;;;13.38;68.46;46434.25;4997246;28;45558;-72
2022/09/30 01:55:39;;;;;;;;;13.33;13.00;;;;;13.37;68.67;47383.88;5010749;28;45573;-71
2022/09/30 01:58:17;;;;;;;;;17.33;14.00;;;;;13.37;68.67;47910.03;5010764;28;45404;-72
2022/09/30 02:00:49;;;;;;;;;16.00;14.67;;;;;13.36;68.73;47859.00;5006339;28;45310;-72
2022/09/30 02:03:21;;;;;;;;;16.67;13.33;;;;;13.33;68.95;48585.66;5001356;28;45457;-72
2022/09/30 02:05:57;;;;;;;;;16.00;13.67;;;;;13.28;68.80;48190.81;5011717;28;45534;-72
2022/09/30 02:08:30;;;;;;;;;15.67;14.00;;;;;13.26;68.86;49219.06;5012686;28;46939;-71
2022/09/30 02:11:07;;;;;;;;;16.00;15.00;;;;;13.24;69.01;49566.13;5015031;28;45447;-72
2022/09/30 02:13:50;;;;;;;;;15.33;15.33;;;;;13.24;69.11;50218.91;5001054;28;45288;-72
2022/09/30 02:16:23;;;;;;;;;12.33;12.00;;;;;13.17;68.89;49272.03;5004312;28;45583;-72
2022/09/30 02:19:07;;;;;;;;;18.67;17.00;;;;;13.17;69.06;49248.28;4976175;28;46820;-72
2022/09/30 02:21:39;;;;;;;;;20.00;13.67;;;;;13.20;69.13;49546.78;4993964;28;45398;-72
2022/09/30 02:24:10;;;;;;;;;15.00;15.00;;;;;13.24;68.90;49439.31;4998660;27;45436;-72
2022/09/30 02:26:39;;;;;;;;;15.00;15.00;;;;;13.24;69.19;49648.06;5012331;28;45370;-72
2022/09/30 02:29:12;;;;;;;;;15.67;13.67;;;;;13.21;69.02;48626.00;4984613;28;47103;-72
2022/09/30 02:31:40;;;;;;;;;13.00;13.00;;;;;13.21;69.02;48258.41;4998260;28;45564;-72
2022/09/30 02:34:23;;;;;;;;;17.00;13.33;;;;;13.17;68.68;46636.19;5012890;28;45487;-71
2022/09/30 02:37:01;;;;;;;;;15.00;14.67;;;;;13.15;68.84;46848.81;4995070;28;45499;-72
2022/09/30 02:39:36;;;;;;;;;13.00;13.00;;;;;13.10;68.52;47087.97;4995718;28;46491;-72
2022/09/30 02:42:19;;;;;;;;;16.00;14.67;;;;;13.10;68.95;48952.06;4988743;28;45598;-72
2022/09/30 02:44:47;;;;;;;;;14.33;11.67;;;;;13.11;68.78;47846.25;5012775;28;45434;-71
2022/09/30 02:47:13;;;;;;;;;10.33;10.33;;;;;13.09;68.91;47728.38;5013256;28;45308;-71
2022/09/30 02:49:44;;;;;;;;;10.00;9.67;;;;;13.05;68.80;48863.66;5012432;28;47338;-75
2022/09/30 02:52:21;;;;;;;;;15.67;15.67;;;;;13.08;68.71;47603.41;4978060;28;45598;-74
2022/09/30 02:55:16;;;;;;;;;7.67;7.00;;;;;13.07;68.97;47618.44;4996679;28;45456;-74
2022/09/30 02:57:58;;;;;;;;;12.67;11.67;;;;;13.08;68.95;46270.56;5012759;28;45490;-74
2022/09/30 03:00:24;;;;;;;;;14.00;13.00;;;;;12.92;68.65;45848.09;5007921;28;45338;-73
2022/09/30 03:03:02;;;;;;;;;18.33;13.00;;;;;13.03;68.73;46706.91;4975901;28;45444;-74
2022/09/30 03:05:28;;;;;;;;;16.00;14.00;;;;;12.97;68.87;47848.09;4998241;27;45466;-74
2022/09/30 03:07:54;;;;;;;;;17.33;14.00;;;;;12.88;68.81;47148.91;5007987;27;45445;-75
2022/09/30 03:10:20;;;;;;;;;5.00;3.33;;;;;12.94;68.98;48080.53;5097606;27;46127;-74
2022/09/30 03:13:00;;;;;;;;;13.33;12.67;;;;;12.96;69.11;48153.09;4993674;28;45449;-74
2022/09/30 03:15:43;;;;;;;;;13.33;13.33;;;;;12.94;69.10;49229.22;4994352;28;45306;-75
2022/09/30 03:18:08;;;;;;;;;13.00;9.00;;;;;12.95;69.00;48171.16;4974929;28;45378;-75
2022/09/30 03:20:37;;;;;;;;;12.33;12.33;;;;;12.94;69.11;48584.41;4979621;27;45517;-75
2022/09/30 03:23:21;;;;;;;;;12.00;12.00;;;;;12.95;69.21;50096.03;4994110;28;45353;-74
2022/09/30 03:26:20;;;;;;;;;14.33;12.33;;;;;12.94;69.26;50723.88;4993556;28;45311;-74
2022/09/30 03:29:05;;;;;;;;;15.00;14.00;;;;;12.91;69.40;50420.50;4998695;28;45520;-74
2022/09/30 03:32:12;;;;;;;;;16.00;13.67;;;;;12.90;69.37;50004.91;4991821;28;46157;-74
2022/09/30 03:35:10;;;;;;;;;11.00;11.00;;;;;12.88;69.32;50220.16;4985889;28;45468;-74
2022/09/30 03:37:58;;;;;;;;;13.67;10.33;;;;;12.86;69.39;51382.97;5002702;28;45374;-74
2022/09/30 03:40:26;;;;;;;;;13.00;13.00;;;;;12.89;69.52;50670.13;4977390;28;45356;-75
2022/09/30 03:43:01;;;;;;;;;13.00;12.33;;;;;12.89;69.50;50088.53;5002094;28;46326;-74
2022/09/30 03:45:35;;;;;;;;;13.00;11.00;;;;;12.89;69.45;49890.44;5014265;28;45285;-75
2022/09/30 03:48:06;;;;;;;;;12.00;11.00;;;;;12.89;69.39;50057.28;5003427;28;45450;-74
2022/09/30 03:50:35;;;;;;;;;14.33;14.33;;;;;12.90;69.07;49307.63;4995161;28;45496;-75
2022/09/30 03:53:01;;;;;;;;;12.00;12.00;;;;;12.85;69.04;47806.72;5012346;28;45318;-75
2022/09/30 03:55:27;;;;;;;;;16.33;16.00;;;;;12.91;69.02;46963.59;5014993;28;45339;-74
2022/09/30 03:57:53;;;;;;;;;13.33;13.00;;;;;12.91;68.90;45889.91;5008386;28;45413;-75
2022/09/30 04:00:19;;;;;;;;;13.00;11.33;;;;;12.91;68.78;44035.34;5005134;28;45374;-74
2022/09/30 04:02:45;;;;;;;;;13.00;12.00;;;;;12.88;68.65;44336.31;5005050;28;46152;-74
2022/09/30 04:05:11;;;;;;;;;13.00;11.67;;;;;12.91;68.71;44135.19;4989915;28;45371;-75
2022/09/30 04:07:36;;;;;;;;;12.67;12.00;;;;;12.90;68.50;42433.97;4997484;28;45512;-75
2022/09/30 04:10:02;;;;;;;;;10.67;10.67;;;;;12.87;68.55;43122.84;4998529;28;45833;-75
2022/09/30 04:12:27;;;;;;;;;12.33;12.33;;;;;12.88;68.59;44336.69;4994836;28;46309;-75
2022/09/30 04:14:52;;;;;;;;;10.33;10.33;;;;;12.88;68.71;44025.09;5003004;28;45415;-75
2022/09/30 04:17:18;;;;;;;;;12.67;12.67;;;;;12.87;68.32;42099.56;5014934;28;45687;-75
2022/09/30 04:19:43;;;;;;;;;10.67;10.33;;;;;12.79;68.66;42676.50;5001261;28;45495;-74
2022/09/30 04:22:09;;;;;;;;;18.67;13.67;;;;;12.81;68.44;43539.72;5004713;28;45376;-75
2022/09/30 04:24:35;;;;;;;;;14.00;11.00;;;;;12.78;68.54;42304.09;5012320;28;45642;-75
2022/09/30 04:27:01;;;;;;;;;10.67;10.33;;;;;12.81;68.76;42978.16;5009165;28;45449;-75
2022/09/30 04:29:26;;;;;;;;;14.67;13.00;;;;;12.75;68.69;42870.78;5007759;28;45469;-74
2022/09/30 04:31:51;;;;;;;;;9.00;9.00;;;;;12.71;68.54;43479.28;5010353;28;46625;-75
2022/09/30 04:34:17;;;;;;;;;11.67;11.67;;;;;12.75;68.70;44184.09;4999278;28;45533;-75
2022/09/30 04:36:42;;;;;;;;;11.00;11.00;;;;;12.64;68.80;42834.19;5000417;28;45564;-75
2022/09/30 04:39:08;;;;;;;;;12.67;11.33;;;;;12.72;68.50;43287.63;4977675;28;45320;-75
2022/09/30 04:41:33;;;;;;;;;14.33;12.00;;;;;12.72;68.61;42816.16;4995048;28;48643;-75
2022/09/30 04:44:04;;;;;;;;;12.00;11.67;;;;;12.67;68.51;41405.19;5004996;28;45421;-75
2022/09/30 04:46:31;;;;;;;;;14.33;12.00;;;;;12.70;68.51;40060.91;4995576;28;45527;-75
2022/09/30 04:48:56;;;;;;;;;12.33;10.00;;;;;12.68;68.52;40821.06;5011502;28;45611;-74
2022/09/30 04:51:22;;;;;;;;;15.00;14.00;;;;;12.68;68.41;41912.19;5001401;28;46174;-75
2022/09/30 04:53:48;;;;;;;;;15.00;11.33;;;;;12.68;68.75;41469.53;5009434;28;45327;-75
2022/09/30 04:56:15;;;;;;;;;12.67;12.67;;;;;12.58;68.51;42726.84;4986412;28;45820;-75
2022/09/30 04:58:42;;;;;;;;;13.00;13.00;;;;;12.61;68.59;42505.13;5005365;27;45332;-74
2022/09/30 05:01:10;;;;;;;;;14.00;12.00;;;;;12.59;68.81;44662.34;4990598;28;45517;-74
2022/09/30 05:03:37;;;;;;;;;10.67;10.67;;;;;12.57;68.83;45035.16;5005305;28;45580;-75
2022/09/30 05:06:04;;;;;;;;;11.33;11.33;;;;;12.60;68.86;45817.72;4996025;28;45737;-75
2022/09/30 05:08:31;;;;;;;;;13.00;13.00;;;;;12.61;68.93;45230.84;4994331;28;45510;-75
2022/09/30 05:10:58;;;;;;;;;14.00;12.00;;;;;12.61;68.77;44964.13;4994510;28;46358;-75
2022/09/30 05:13:28;;;;;;;;;14.33;14.33;;;;;12.62;68.56;44474.50;4994418;28;45532;-75
2022/09/30 05:15:53;;;;;;;;;23.67;21.00;;;;;12.59;68.58;46466.13;4992789;28;45891;-75
2022/09/30 05:18:19;;;;;;;;;25.33;25.33;;;;;12.58;69.01;45947.97;4996708;27;45551;-75
2022/09/30 05:20:47;;;;;;;;;28.67;27.00;;;;;12.45;68.65;45437.28;5002173;28;45998;-75
2022/09/30 05:23:12;;;;;;;;;32.00;27.00;;;;;12.56;68.91;44406.88;4998352;28;45425;-75
2022/09/30 05:25:38;;;;;;;;;33.33;30.00;;;;;12.55;68.79;45708.59;5034335;27;45551;-73
2022/09/30 05:28:03;;;;;;;;;26.00;23.00;;;;;12.54;69.09;45644.50;4980922;28;45387;-72
2022/09/30 05:30:28;;;;;;;;;18.33;18.33;;;;;12.53;68.95;46439.72;4997904;27;47269;-73
2022/09/30 05:32:53;;;;;;;;;16.00;16.00;;;;;12.55;69.01;46127.91;5000913;27;45437;-72
2022/09/30 05:35:19;;;;;;;;;18.00;16.00;;;;;12.49;69.06;46162.16;5014688;27;45376;-73
2022/09/30 05:37:44;;;;;;;;;22.67;20.00;;;;;12.56;68.91;45556.44;4987447;28;47023;-72
2022/09/30 05:40:10;;;;;;;;;19.33;19.00;;;;;12.45;68.85;44896.84;4980110;28;46027;-76
2022/09/30 05:42:35;;;;;;;;;20.33;18.33;;;;;12.38;68.74;45112.28;5012975;27;45456;-78
2022/09/30 05:45:03;;;;;;;;;18.67;15.67;;;;;12.48;68.68;44228.88;4999855;28;45488;-74
2022/09/30 05:47:28;;;;;;;;;9.33;9.33;;;;;12.47;68.80;43754.09;4995732;28;45220;-74
2022/09/30 05:49:54;;;;;;;;;16.33;16.33;;;;;12.51;69.08;45494.03;4986456;28;45999;-76
2022/09/30 05:52:19;;;;;;;;;19.00;18.33;;;;;12.47;68.75;44892.75;4975668;28;45505;-76
2022/09/30 05:54:44;;;;;;;;;22.67;21.67;;;;;12.48;68.78;44887.88;4975111;28;45888;-76
2022/09/30 05:57:10;;;;;;;;;21.67;20.33;;;;;12.44;68.51;44677.25;4987456;28;45488;-76
2022/09/30 05:59:36;;;;;;;;;15.67;15.67;;;;;12.43;68.65;44824.06;5043108;27;46326;-76
2022/09/30 06:02:02;;;;;;;;;18.33;18.00;;;;;12.45;68.94;45932.53;5051923;27;45416;-76
2022/09/30 06:04:28;;;;;;;;;18.00;15.33;;;;;12.45;69.15;46162.38;5045554;27;45364;-76
2022/09/30 06:06:53;;;;;;;;;14.67;14.00;;;;;12.46;68.92;46518.78;5081489;27;45341;-76
2022/09/30 06:09:18;;;;;;;;;19.00;17.00;;;;;12.45;69.29;47385.66;5028475;27;45642;-76
2022/09/30 06:11:44;;;;;;;;;15.00;14.00;;;;;12.50;69.14;46859.25;5070994;27;45380;-76
2022/09/30 06:14:09;;;;;;;;;15.33;15.00;;;;;12.50;69.36;47830.41;5055959;27;45369;-76
2022/09/30 06:16:35;;;;;;;;;23.00;23.00;;;;;12.52;69.31;47610.47;5024052;28;45303;-76
2022/09/30 06:19:00;;;;;;;;;18.33;15.00;;;;;12.53;69.21;47532.19;5083501;27;45596;-76
2022/09/30 06:21:26;;;;;;;;;27.00;25.00;;;;;12.54;69.28;47126.34;5030126;27;45246;-76
2022/09/30 06:23:51;;;;;;;;;23.67;21.00;;;;;12.47;69.41;47207.97;5061411;27;45401;-75
2022/09/30 06:26:16;;;;;;;;;18.33;17.67;;;;;12.54;69.35;47983.75;5011376;27;45445;-73
2022/09/30 06:28:43;;;;;;;;;20.67;16.33;;;;;12.59;69.64;48191.16;5009981;28;45665;-77
2022/09/30 06:31:09;;;;;;;;;25.00;20.00;;;;;12.49;69.99;48715.69;5082639;27;45374;-72
2022/09/30 06:33:34;;;;;;;;;22.00;19.33;;;;;12.44;69.46;48503.81;5035337;27;45497;-73
2022/09/30 06:36:03;;;;;;;;;16.33;15.33;;;;;12.65;69.62;48911.53;5061499;27;45517;-74
2022/09/30 06:38:34;;;;;;;;;16.00;14.00;;;;;12.67;69.91;49608.00;5035539;27;46158;-74
2022/09/30 06:40:59;;;;;;;;;18.33;15.00;;;;;12.62;69.68;48817.00;5011546;27;45473;-73
2022/09/30 06:43:25;;;;;;;;;15.00;14.33;;;;;12.71;69.92;48858.63;5078589;27;45394;-74
2022/09/30 06:45:50;;;;;;;;;19.67;17.00;;;;;12.73;69.73;49620.28;4989279;28;45328;-74
2022/09/30 06:48:17;;;;;;;;;16.33;15.33;;;;;12.77;70.15;50384.78;5058080;27;46067;-75
2022/09/30 06:50:44;;;;;;;;;19.33;17.00;;;;;12.83;70.08;49727.16;5036354;27;45437;-78
2022/09/30 06:53:11;;;;;;;;;16.67;16.33;;;;;12.84;70.14;49923.47;5082655;27;45419;-74
2022/09/30 06:55:45;;;;;;;;;16.00;16.00;;;;;12.88;70.09;49924.34;5018798;27;45246;-70
2022/09/30 06:58:14;;;;;;;;;28.00;25.50;;;;;12.99;70.35;48837.38;5054514;27;46359;-70
2022/09/30 07:00:39;;;;;;;;;21.00;21.00;;;;;12.93;69.63;46202.91;5071561;27;45400;-70
2022/09/30 07:03:08;;;;;;;;;21.67;21.00;;;;;12.83;70.06;49228.06;5008365;27;45443;-73
2022/09/30 07:05:35;;;;;;;;;24.33;19.00;;;;;12.89;70.34;51364.97;5000493;27;45444;-73
2022/09/30 07:08:00;;;;;;;;;22.67;19.00;;;;;12.94;70.71;51569.44;5051366;27;45428;-73
2022/09/30 07:10:26;;;;;;;;;21.67;18.00;;;;;13.00;70.84;51445.81;5012826;27;45311;-73
2022/09/30 07:12:52;;;;;;;;;16.67;16.00;;;;;13.07;70.78;50212.72;4993912;27;45440;-73
2022/09/30 07:15:22;;;;;;;;;6.00;6.00;;;;;13.12;70.52;49346.97;4995396;27;45318;-72
2022/09/30 07:17:55;;;;;;;;;15.00;15.00;;;;;13.19;70.43;49187.03;4977059;28;46079;-72
2022/09/30 07:20:21;;;;;;;;;21.00;19.00;;;;;13.27;70.78;50480.56;4977395;28;45398;-73
2022/09/30 07:22:46;;;;;;;;;17.33;14.00;;;;;13.38;70.08;47001.72;4982868;28;45397;-73
2022/09/30 07:25:13;;;;;;;;;17.33;17.33;;;;;13.39;69.77;45230.94;4979488;28;45412;-73
2022/09/30 07:27:38;;;;;;;;;21.67;19.33;;;;;13.52;69.92;45647.63;4997296;28;47279;-73
2022/09/30 07:30:04;;;;;;;;;21.67;17.33;;;;;13.61;69.66;42161.34;4996728;28;45301;-72
2022/09/30 07:32:30;;;;;;;;;19.00;16.67;;;;;13.70;69.43;36278.41;4996970;28;45302;-73
2022/09/30 07:34:56;;;;;;;;;22.67;22.67;;;;;13.78;69.68;44846.13;4997654;28;45275;-72
2022/09/30 07:37:24;;;;;;;;;19.33;17.33;;;;;13.90;69.24;36736.66;4996780;28;46148;-72
2022/09/30 07:39:49;;;;;;;;;20.67;17.33;;;;;13.97;68.75;30891.13;4996920;28;45341;-72
2022/09/30 07:42:18;;;;;;;;;10.00;8.67;;;;;14.03;68.44;22324.66;4990070;28;45412;-72
2022/09/30 07:44:44;;;;;;;;;18.00;17.67;;;;;14.07;68.55;28787.84;4977439;28;45514;-71
2022/09/30 07:47:10;;;;;;;;;22.67;20.00;;;;;14.15;68.46;22361.22;4976814;28;46117;-72
2022/09/30 07:49:36;;;;;;;;;21.67;19.33;;;;;14.21;68.46;26076.34;4959615;28;45491;-72
2022/09/30 07:52:02;;;;;;;;;23.00;21.67;;;;;14.19;68.16;18676.94;4976951;28;45472;-73
2022/09/30 07:54:30;;;;;;;;;28.67;22.67;;;;;14.21;68.40;23862.00;4977508;28;45251;-73
2022/09/30 07:56:57;;;;;;;;;21.33;19.67;;;;;14.45;68.03;15322.50;4977115;28;47051;-73
2022/09/30 07:59:23;;;;;;;;;29.67;27.67;;;;;14.55;68.23;16979.53;4977088;28;45386;-74
2022/09/30 08:01:49;;;;;;;;;24.33;19.33;;;;;14.64;67.32;917.66;4976708;28;45926;-74
2022/09/30 08:04:16;;;;;;;;;24.67;19.00;;;;;15.62;66.30;-17910.44;4977356;28;45386;-74
2022/09/30 08:06:46;;;;;;;;;22.00;19.33;;;;;16.34;63.49;-19646.28;4976675;28;47325;-72
2022/09/30 08:09:14;;;;;;;;;18.67;17.67;;;;;16.11;63.98;-19640.13;4977019;28;45472;-73
2022/09/30 08:11:41;;;;;;;;;18.00;18.00;;;;;15.83;63.84;-19633.00;4977033;28;45338;-73
2022/09/30 08:14:11;;;;;;;;;16.33;14.00;;;;;15.63;64.38;-19627.78;4977136;28;45342;-74
2022/09/30 08:16:36;;;;;;;;;20.33;20.33;;;;;15.46;64.83;-19623.09;4976514;28;46542;-73
2022/09/30 08:19:02;;;;;;;;;17.00;16.67;;;;;15.53;65.04;-19625.09;4974797;28;45392;-73
2022/09/30 08:21:28;;;;;;;;;17.00;16.33;;;;;15.47;65.41;-19623.34;4976685;28;45348;-73
2022/09/30 08:23:54;;;;;;;;;22.67;20.00;;;;;15.59;64.98;-19626.72;4977152;28;45351;-72
2022/09/30 08:26:19;;;;;;;;;20.33;18.67;;;;;15.62;64.28;-19627.50;4975212;28;47206;-74
2022/09/30 08:28:46;;;;;;;;;24.33;21.67;;;;;15.66;65.07;-19628.31;4976601;28;45299;-72
2022/09/30 08:31:20;;;;;;;;;21.67;18.67;;;;;15.72;65.30;-19629.94;4976724;28;45371;-73
2022/09/30 08:33:46;;;;;;;;;21.00;19.33;;;;;15.81;65.17;-19632.47;4976977;28;45410;-72
2022/09/30 08:36:18;;;;;;;;;23.00;20.67;;;;;15.88;64.48;-19634.22;4976638;28;45402;-72
2022/09/30 08:38:44;;;;;;;;;19.33;18.33;;;;;15.83;63.97;-19633.00;4982806;28;45416;-72
2022/09/30 08:41:40;;;;;;;;;26.67;20.00;;;;;16.02;64.55;-19637.84;4996112;28;45404;-72
2022/09/30 08:44:36;;;;;;;;;23.33;21.00;;;;;16.13;64.33;-19640.66;4996294;28;45540;-73
2022/09/30 08:47:42;;;;;;;;;15.00;15.00;;;;;16.24;64.21;-19643.59;4976188;28;45374;-73
2022/09/30 08:50:26;;;;;;;;;23.33;21.33;;;;;16.32;63.81;-19645.75;4976765;28;45236;-76
2022/09/30 08:52:58;;;;;;;;;24.00;21.33;;;;;16.48;64.25;-19649.91;4959066;28;45306;-75
2022/09/30 08:55:28;;;;;;;;;22.00;19.67;;;;;16.71;63.21;-19655.78;4976807;28;45399;-82
2022/09/30 08:57:55;;;;;;;;;25.67;25.33;;;;;16.70;62.93;-19655.53;4976322;28;46166;-74
2022/09/30 09:00:21;;;;;;;;;24.67;19.67;;;;;16.75;63.18;-19657.00;4958569;28;45369;-75
2022/09/30 09:02:57;;;;;;;;;26.00;22.33;;;;;16.76;61.35;-19657.25;4976132;28;45425;-75
2022/09/30 09:06:00;;;;;;;;;21.33;20.00;;;;;16.87;62.99;-19660.09;4976473;28;45417;-74
2022/09/30 09:08:40;;;;;;;;;25.33;23.00;;;;;16.92;62.02;-19661.41;4976213;28;46632;-75
2022/09/30 09:11:22;;;;;;;;;23.00;19.00;;;;;17.04;62.29;-19664.63;4959159;28;45387;-74
2022/09/30 09:14:02;;;;;;;;;16.67;12.67;;;;;17.11;62.58;-19666.38;4975794;28;45318;-75
2022/09/30 09:16:41;;;;;;;;;21.67;17.00;;;;;17.11;61.58;-19666.25;4959964;28;45530;-74
2022/09/30 09:19:09;;;;;;;;;18.33;16.33;;;;;17.24;61.29;-19669.84;4975899;28;46202;-74
2022/09/30 09:21:37;;;;;;;;;21.00;17.33;;;;;17.32;61.94;-19671.84;4976041;28;45377;-74
2022/09/30 09:24:11;;;;;;;;;25.33;20.67;;;;;17.41;60.61;-19674.28;4976052;28;45361;-74
2022/09/30 09:26:37;;;;;;;;;21.33;17.00;;;;;17.54;60.67;-19677.63;4976478;28;45334;-80
2022/09/30 09:29:19;;;;;;;;;35.67;32.00;;;;;17.66;60.26;-19680.81;4975815;28;45655;-73
2022/09/30 09:31:47;;;;;;;;;29.33;27.00;;;;;18.03;60.17;-19690.31;4974991;28;45299;-73
2022/09/30 09:34:12;;;;;;;;;28.00;25.00;;;;;18.65;59.71;-19706.50;4976187;28;45220;-74
2022/09/30 09:37:15;;;;;;;;;19.00;16.33;;;;;19.72;57.90;-19734.53;4976502;28;45310;-74
2022/09/30 09:39:49;;;;;;;;;13.67;11.33;;;;;20.75;54.14;-19761.34;4990102;28;46188;-73
2022/09/30 09:42:20;;;;;;;;;12.67;11.67;;;;;22.21;53.01;-19799.16;4995690;28;45471;-73
2022/09/30 09:44:58;;;;;;;;;41.67;33.00;;;;;24.15;49.48;-19849.63;4995707;28;45341;-74
2022/09/30 09:47:24;;;;;;;;;11.00;11.00;;;;;26.15;45.75;-19901.16;4995853;28;45385;-75
2022/09/30 09:49:54;;;;;;;;;11.33;10.33;;;;;27.88;42.64;-19945.81;4995129;28;46933;-74
2022/09/30 09:53:09;;;;;;;;;10.33;10.00;;;;;29.50;39.75;-19987.59;4995478;28;45379;-74
2022/09/30 09:55:36;;;;;;;;;12.33;9.67;;;;;30.99;36.67;-20025.72;4995555;28;45429;-74
2022/09/30 09:58:13;;;;;;;;;10.67;10.33;;;;;31.94;35.08;-19363.59;4995541;28;45500;-74
2022/09/30 10:03:27;;;;;;;;;7.67;7.67;;;;;33.15;32.37;-12871.72;4995197;28;45361;-74
2022/09/30 10:06:11;;;;;;;;;11.33;10.67;;;;;33.84;31.78;-11505.81;4995314;28;45378;-74
2022/09/30 10:08:51;;;;;;;;;8.67;8.33;;;;;34.61;30.38;-7724.38;5084148;27;45399;-73
2022/09/30 10:11:22;;;;;;;;;11.00;8.67;;;;;35.17;29.29;-128.59;5098494;27;46408;-74
2022/09/30 10:13:49;;;;;;;;;7.67;7.67;;;;;35.61;28.89;2989.25;5098471;27;45356;-74
2022/09/30 10:16:27;;;;;;;;;6.67;6.67;;;;;35.94;28.04;11555.41;5098594;27;45283;-74
2022/09/30 10:18:52;;;;;;;;;6.67;6.33;;;;;36.20;26.62;17726.81;5099052;27;45360;-73
2022/09/30 10:21:20;;;;;;;;;6.67;6.00;;;;;36.40;26.46;23657.22;5098091;27;46213;-74
2022/09/30 10:23:45;;;;;;;;;7.33;7.00;;;;;36.56;27.21;25298.91;5098353;27;45279;-73
2022/09/30 10:26:13;;;;;;;;;9.00;9.00;;;;;36.76;26.60;27148.63;5079840;27;45356;-73
2022/09/30 10:28:52;;;;;;;;;10.33;10.33;;;;;36.93;25.69;31215.19;5098747;27;45366;-75
2022/09/30 10:31:29;;;;;;;;;7.00;7.00;;;;;37.02;26.06;33036.53;5098102;27;45426;-74
2022/09/30 10:34:06;;;;;;;;;6.67;6.67;;;;;36.95;24.71;38223.91;5098054;27;45505;-75
2022/09/30 10:36:38;;;;;;;;;39.00;33.00;;;;;36.92;24.77;40225.09;5098386;27;45353;-74
2022/09/30 10:39:28;;;;;;;;;8.00;7.00;;;;;36.92;25.15;41946.97;5050172;27;45619;-73
2022/09/30 10:42:20;;;;;;;;;6.67;6.33;;;;;36.76;24.95;43827.59;4993575;28;46191;-73
2022/09/30 10:44:56;;;;;;;;;5.67;4.00;;;;;36.66;24.27;45655.00;4994700;28;45404;-75
2022/09/30 10:47:27;;;;;;;;;6.67;6.67;;;;;36.75;23.62;47616.25;4994839;28;45388;-73
2022/09/30 10:49:59;;;;;;;;;5.00;5.00;;;;;36.64;23.54;48593.97;4994858;28;45485;-75
2022/09/30 10:52:35;;;;;;;;;4.67;3.00;;;;;36.42;24.45;50406.94;4994688;28;47431;-83
2022/09/30 10:55:21;;;;;;;;;4.00;3.33;;;;;35.95;24.24;52134.38;4995024;28;45307;-76
2022/09/30 10:57:49;;;;;;;;;4.33;3.00;;;;;35.60;23.19;54202.31;5002295;28;45406;-75
2022/09/30 11:00:20;;;;;;;;;7.00;5.00;;;;;35.35;23.82;54207.28;5018419;27;45866;-74
2022/09/30 11:02:53;;;;;;;;;5.00;3.33;;;;;35.12;23.73;55180.13;5062543;27;45767;-74
2022/09/30 11:05:23;;;;;;;;;3.50;3.50;;;;;34.79;23.88;56288.91;5028637;27;45310;-74
2022/09/30 11:07:53;;;;;;;;;2.00;2.00;;;;;34.55;24.25;56869.00;4982041;28;45316;-74
2022/09/30 11:10:30;;;;;;;;;7.33;7.33;;;;;34.22;25.05;57188.03;5047353;27;45499;-75
2022/09/30 11:13:10;;;;;;;;;4.00;3.00;;;;;33.90;24.20;58064.88;5024347;28;47472;-74
2022/09/30 11:15:44;;;;;;;;;1.25;1.25;;;;;33.42;24.08;59547.72;5064461;27;45313;-73
2022/09/30 11:18:09;;;;;;;;;3.50;2.00;;;;;33.11;24.23;59726.53;5041838;27;45286;-73
2022/09/30 11:20:44;;;;;;;;;3.00;3.00;;;;;32.68;24.83;60270.88;5035930;28;45482;-73
2022/09/30 11:23:27;;;;;;;;;4.00;4.00;;;;;32.29;25.15;60824.72;5076090;27;45441;-73
2022/09/30 11:26:04;;;;;;;;;4.00;4.00;;;;;31.71;25.76;61415.22;4982284;28;45559;-72
2022/09/30 11:29:00;;;;;;;;;1.00;1.00;;;;;31.28;25.75;61760.41;5053087;27;45408;-73
2022/09/30 11:32:12;;;;;;;;;3.67;3.67;;;;;30.69;26.62;62285.88;5027810;27;45518;-72
2022/09/30 11:35:18;;;;;;;;;2.00;2.00;;;;;30.45;26.36;62367.00;5053334;28;45413;-73
2022/09/30 11:38:02;;;;;;;;;3.25;3.00;;;;;30.24;26.45;62674.06;5053859;28;45459;-72
2022/09/30 11:40:40;;;;;;;;;2.33;2.00;;;;;29.98;26.76;62914.00;5042653;28;45494;-73
2022/09/30 11:43:29;;;;;;;;;2.75;2.75;;;;;29.62;27.40;62821.22;5037017;28;45348;-72
2022/09/30 11:46:22;;;;;;;;;3.00;3.00;;;;;29.43;28.31;62350.22;5033622;28;45366;-73
2022/09/30 11:49:09;;;;;;;;;5.00;5.00;;;;;29.30;28.54;62071.94;5034175;28;45426;-74